sensor_id;sensor_type;location;lat;lon;timestamp;P1;durP1;ratioP1;P2;durP2;ratioP2
15261;SDS011;7733;51.554;13.590;2023-02-17T00:01:21;18.40;;;16.70;;
15261;SDS011;7733;51.554;13.590;2023-02-17T00:03:58;19.50;;;17.30;;
15261;SDS011;7733;51.554;13.590;2023-02-17T00:06:25;20.03;;;17.90;;
15261;SDS011;7733;51.554;13.590;2023-02-17T00:08:55;18.77;;;17.07;;
15261;SDS011;7733;51.554;13.590;2023-02-17T00:11:22;19.13;;;17.13;;
15261;SDS011;7733;51.554;13.590;2023-02-17T00:13:48;19.50;;;17.50;;
15261;SDS011;7733;51.554;13.590;2023-02-17T00:16:16;18.20;;;16.30;;
15261;SDS011;7733;51.554;13.590;2023-02-17T00:18:45;19.70;;;17.23;;
15261;SDS011;7733;51.554;13.590;2023-02-17T00:21:19;18.50;;;16.67;;
15261;SDS011;7733;51.554;13.590;2023-02-17T00:23:48;18.80;;;16.83;;
15261;SDS011;7733;51.554;13.590;2023-02-17T00:26:15;18.63;;;16.87;;
15261;SDS011;7733;51.554;13.590;2023-02-17T00:28:42;18.57;;;16.77;;
15261;SDS011;7733;51.554;13.590;2023-02-17T00:31:09;19.30;;;17.30;;
15261;SDS011;7733;51.554;13.590;2023-02-17T00:33:40;18.00;;;16.30;;
15261;SDS011;7733;51.554;13.590;2023-02-17T00:36:07;18.73;;;16.93;;
15261;SDS011;7733;51.554;13.590;2023-02-17T00:38:38;19.33;;;17.23;;
15261;SDS011;7733;51.554;13.590;2023-02-17T00:41:04;19.00;;;17.07;;
15261;SDS011;7733;51.554;13.590;2023-02-17T00:43:30;18.17;;;16.27;;
15261;SDS011;7733;51.554;13.590;2023-02-17T00:45:56;18.40;;;16.60;;
15261;SDS011;7733;51.554;13.590;2023-02-17T00:48:22;18.03;;;16.27;;
15261;SDS011;7733;51.554;13.590;2023-02-17T00:50:48;18.37;;;16.50;;
15261;SDS011;7733;51.554;13.590;2023-02-17T00:53:13;17.87;;;16.07;;
15261;SDS011;7733;51.554;13.590;2023-02-17T00:55:39;18.80;;;17.00;;
15261;SDS011;7733;51.554;13.590;2023-02-17T00:58:05;18.30;;;16.50;;
15261;SDS011;7733;51.554;13.590;2023-02-17T01:00:31;17.90;;;16.20;;
15261;SDS011;7733;51.554;13.590;2023-02-17T01:02:57;19.63;;;17.63;;
15261;SDS011;7733;51.554;13.590;2023-02-17T01:05:22;19.10;;;17.13;;
15261;SDS011;7733;51.554;13.590;2023-02-17T01:07:48;17.67;;;15.87;;
15261;SDS011;7733;51.554;13.590;2023-02-17T01:10:14;16.90;;;15.27;;
15261;SDS011;7733;51.554;13.590;2023-02-17T01:12:40;17.83;;;15.97;;
15261;SDS011;7733;51.554;13.590;2023-02-17T01:15:06;18.20;;;16.33;;
15261;SDS011;7733;51.554;13.590;2023-02-17T01:17:32;17.83;;;16.03;;
15261;SDS011;7733;51.554;13.590;2023-02-17T01:19:58;18.20;;;16.40;;
15261;SDS011;7733;51.554;13.590;2023-02-17T01:22:24;17.67;;;15.87;;
15261;SDS011;7733;51.554;13.590;2023-02-17T01:24:49;18.03;;;16.40;;
15261;SDS011;7733;51.554;13.590;2023-02-17T01:27:15;17.93;;;16.10;;
15261;SDS011;7733;51.554;13.590;2023-02-17T01:29:42;20.00;;;17.07;;
15261;SDS011;7733;51.554;13.590;2023-02-17T01:32:09;17.93;;;16.23;;
15261;SDS011;7733;51.554;13.590;2023-02-17T01:34:35;18.70;;;16.80;;
15261;SDS011;7733;51.554;13.590;2023-02-17T01:37:02;17.90;;;16.17;;
15261;SDS011;7733;51.554;13.590;2023-02-17T01:39:28;17.07;;;15.43;;
15261;SDS011;7733;51.554;13.590;2023-02-17T01:41:54;17.97;;;16.20;;
15261;SDS011;7733;51.554;13.590;2023-02-17T01:44:21;18.37;;;16.47;;
15261;SDS011;7733;51.554;13.590;2023-02-17T01:46:50;17.63;;;15.97;;
15261;SDS011;7733;51.554;13.590;2023-02-17T01:49:34;18.63;;;16.73;;
15261;SDS011;7733;51.554;13.590;2023-02-17T01:52:07;17.80;;;16.10;;
15261;SDS011;7733;51.554;13.590;2023-02-17T01:57:22;17.20;;;15.60;;
15261;SDS011;7733;51.554;13.590;2023-02-17T01:59:54;17.87;;;16.07;;
15261;SDS011;7733;51.554;13.590;2023-02-17T02:02:20;17.57;;;15.97;;
15261;SDS011;7733;51.554;13.590;2023-02-17T02:04:48;18.23;;;16.43;;
15261;SDS011;7733;51.554;13.590;2023-02-17T02:07:22;18.07;;;16.37;;
15261;SDS011;7733;51.554;13.590;2023-02-17T02:09:55;17.80;;;15.90;;
15261;SDS011;7733;51.554;13.590;2023-02-17T02:12:27;18.23;;;16.43;;
15261;SDS011;7733;51.554;13.590;2023-02-17T02:15:04;18.27;;;16.37;;
15261;SDS011;7733;51.554;13.590;2023-02-17T02:32:24;18.60;;;16.43;;
15261;SDS011;7733;51.554;13.590;2023-02-17T02:35:33;18.43;;;16.37;;
15261;SDS011;7733;51.554;13.590;2023-02-17T02:41:03;18.40;;;16.53;;
15261;SDS011;7733;51.554;13.590;2023-02-17T02:43:37;18.27;;;16.50;;
15261;SDS011;7733;51.554;13.590;2023-02-17T02:46:03;19.17;;;17.17;;
15261;SDS011;7733;51.554;13.590;2023-02-17T02:48:29;19.50;;;17.50;;
15261;SDS011;7733;51.554;13.590;2023-02-17T02:51:01;19.03;;;17.03;;
15261;SDS011;7733;51.554;13.590;2023-02-17T02:54:00;17.77;;;15.97;;
15261;SDS011;7733;51.554;13.590;2023-02-17T02:59:46;18.27;;;16.37;;
15261;SDS011;7733;51.554;13.590;2023-02-17T03:08:21;18.57;;;16.67;;
15261;SDS011;7733;51.554;13.590;2023-02-17T03:10:59;18.33;;;16.43;;
15261;SDS011;7733;51.554;13.590;2023-02-17T03:13:26;17.33;;;15.60;;
15261;SDS011;7733;51.554;13.590;2023-02-17T03:15:52;17.93;;;16.10;;
15261;SDS011;7733;51.554;13.590;2023-02-17T03:18:18;17.77;;;16.13;;
15261;SDS011;7733;51.554;13.590;2023-02-17T03:20:52;17.30;;;15.50;;
15261;SDS011;7733;51.554;13.590;2023-02-17T03:23:22;17.50;;;15.80;;
15261;SDS011;7733;51.554;13.590;2023-02-17T03:25:48;16.60;;;15.00;;
15261;SDS011;7733;51.554;13.590;2023-02-17T03:28:13;17.63;;;15.90;;
15261;SDS011;7733;51.554;13.590;2023-02-17T03:30:39;16.30;;;14.70;;
15261;SDS011;7733;51.554;13.590;2023-02-17T03:33:06;16.90;;;15.20;;
15261;SDS011;7733;51.554;13.590;2023-02-17T03:35:32;17.13;;;15.50;;
15261;SDS011;7733;51.554;13.590;2023-02-17T03:37:58;16.53;;;14.93;;
15261;SDS011;7733;51.554;13.590;2023-02-17T03:40:23;17.03;;;15.33;;
15261;SDS011;7733;51.554;13.590;2023-02-17T03:42:49;17.00;;;15.20;;
15261;SDS011;7733;51.554;13.590;2023-02-17T03:45:15;16.80;;;15.00;;
15261;SDS011;7733;51.554;13.590;2023-02-17T03:47:41;15.77;;;14.23;;
15261;SDS011;7733;51.554;13.590;2023-02-17T03:50:06;16.83;;;15.23;;
15261;SDS011;7733;51.554;13.590;2023-02-17T03:52:33;19.30;;;15.07;;
15261;SDS011;7733;51.554;13.590;2023-02-17T03:54:59;17.90;;;16.10;;
15261;SDS011;7733;51.554;13.590;2023-02-17T03:57:25;16.80;;;15.20;;
15261;SDS011;7733;51.554;13.590;2023-02-17T03:59:51;17.37;;;15.77;;
15261;SDS011;7733;51.554;13.590;2023-02-17T04:02:16;17.57;;;15.73;;
15261;SDS011;7733;51.554;13.590;2023-02-17T04:04:42;18.50;;;16.70;;
15261;SDS011;7733;51.554;13.590;2023-02-17T04:07:08;18.10;;;16.30;;
15261;SDS011;7733;51.554;13.590;2023-02-17T04:09:33;18.53;;;16.70;;
15261;SDS011;7733;51.554;13.590;2023-02-17T04:11:59;19.57;;;17.53;;
15261;SDS011;7733;51.554;13.590;2023-02-17T04:14:25;18.73;;;16.83;;
15261;SDS011;7733;51.554;13.590;2023-02-17T04:16:51;20.70;;;18.50;;
15261;SDS011;7733;51.554;13.590;2023-02-17T04:19:16;20.57;;;18.40;;
15261;SDS011;7733;51.554;13.590;2023-02-17T04:21:42;20.97;;;18.57;;
15261;SDS011;7733;51.554;13.590;2023-02-17T04:24:08;21.57;;;19.33;;
15261;SDS011;7733;51.554;13.590;2023-02-17T04:26:33;22.07;;;19.77;;
15261;SDS011;7733;51.554;13.590;2023-02-17T04:28:59;22.27;;;19.77;;
15261;SDS011;7733;51.554;13.590;2023-02-17T04:31:29;23.57;;;19.80;;
15261;SDS011;7733;51.554;13.590;2023-02-17T04:33:54;22.67;;;20.07;;
15261;SDS011;7733;51.554;13.590;2023-02-17T04:36:20;23.00;;;20.50;;
15261;SDS011;7733;51.554;13.590;2023-02-17T04:38:46;23.67;;;21.00;;
15261;SDS011;7733;51.554;13.590;2023-02-17T04:41:12;23.53;;;21.13;;
15261;SDS011;7733;51.554;13.590;2023-02-17T04:43:38;23.63;;;21.13;;
15261;SDS011;7733;51.554;13.590;2023-02-17T04:46:04;23.53;;;21.07;;
15261;SDS011;7733;51.554;13.590;2023-02-17T04:48:30;23.87;;;21.30;;
15261;SDS011;7733;51.554;13.590;2023-02-17T04:50:56;24.10;;;21.13;;
15261;SDS011;7733;51.554;13.590;2023-02-17T04:53:21;23.10;;;20.60;;
15261;SDS011;7733;51.554;13.590;2023-02-17T04:55:48;22.77;;;20.37;;
15261;SDS011;7733;51.554;13.590;2023-02-17T04:58:16;23.27;;;20.80;;
15261;SDS011;7733;51.554;13.590;2023-02-17T05:00:42;21.83;;;19.53;;
15261;SDS011;7733;51.554;13.590;2023-02-17T05:03:11;23.00;;;20.70;;
15261;SDS011;7733;51.554;13.590;2023-02-17T05:05:36;22.37;;;20.07;;
15261;SDS011;7733;51.554;13.590;2023-02-17T05:08:02;23.93;;;21.23;;
15261;SDS011;7733;51.554;13.590;2023-02-17T05:10:28;23.50;;;21.07;;
15261;SDS011;7733;51.554;13.590;2023-02-17T05:12:54;24.73;;;20.63;;
15261;SDS011;7733;51.554;13.590;2023-02-17T05:15:20;21.13;;;19.03;;
15261;SDS011;7733;51.554;13.590;2023-02-17T05:17:46;22.10;;;19.90;;
15261;SDS011;7733;51.554;13.590;2023-02-17T05:20:11;23.50;;;20.53;;
15261;SDS011;7733;51.554;13.590;2023-02-17T05:22:37;20.17;;;18.13;;
15261;SDS011;7733;51.554;13.590;2023-02-17T05:25:03;23.70;;;19.80;;
15261;SDS011;7733;51.554;13.590;2023-02-17T05:27:30;21.90;;;19.67;;
15261;SDS011;7733;51.554;13.590;2023-02-17T05:29:57;22.00;;;18.80;;
15261;SDS011;7733;51.554;13.590;2023-02-17T05:32:22;21.47;;;19.17;;
15261;SDS011;7733;51.554;13.590;2023-02-17T05:34:48;20.40;;;18.17;;
15261;SDS011;7733;51.554;13.590;2023-02-17T05:37:14;19.60;;;17.63;;
15261;SDS011;7733;51.554;13.590;2023-02-17T05:39:40;20.47;;;18.37;;
15261;SDS011;7733;51.554;13.590;2023-02-17T05:42:05;20.00;;;18.00;;
15261;SDS011;7733;51.554;13.590;2023-02-17T05:44:31;21.83;;;17.97;;
15261;SDS011;7733;51.554;13.590;2023-02-17T05:46:57;19.83;;;17.57;;
15261;SDS011;7733;51.554;13.590;2023-02-17T05:49:22;20.23;;;17.53;;
15261;SDS011;7733;51.554;13.590;2023-02-17T05:51:48;19.30;;;16.83;;
15261;SDS011;7733;51.554;13.590;2023-02-17T05:54:14;18.27;;;16.47;;
15261;SDS011;7733;51.554;13.590;2023-02-17T05:56:40;18.67;;;16.87;;
15261;SDS011;7733;51.554;13.590;2023-02-17T05:59:05;18.20;;;16.30;;
15261;SDS011;7733;51.554;13.590;2023-02-17T06:01:31;18.77;;;16.77;;
15261;SDS011;7733;51.554;13.590;2023-02-17T06:03:57;18.20;;;15.90;;
15261;SDS011;7733;51.554;13.590;2023-02-17T06:06:23;17.00;;;15.40;;
15261;SDS011;7733;51.554;13.590;2023-02-17T06:08:48;17.00;;;15.20;;
15261;SDS011;7733;51.554;13.590;2023-02-17T06:11:15;16.53;;;14.93;;
15261;SDS011;7733;51.554;13.590;2023-02-17T06:13:41;16.27;;;14.67;;
15261;SDS011;7733;51.554;13.590;2023-02-17T06:16:07;16.60;;;15.03;;
15261;SDS011;7733;51.554;13.590;2023-02-17T06:18:33;16.30;;;14.60;;
15261;SDS011;7733;51.554;13.590;2023-02-17T06:20:58;16.33;;;14.63;;
15261;SDS011;7733;51.554;13.590;2023-02-17T06:23:24;16.17;;;14.57;;
15261;SDS011;7733;51.554;13.590;2023-02-17T06:25:51;15.90;;;14.30;;
15261;SDS011;7733;51.554;13.590;2023-02-17T06:28:18;14.70;;;13.30;;
15261;SDS011;7733;51.554;13.590;2023-02-17T06:30:44;14.43;;;13.13;;
15261;SDS011;7733;51.554;13.590;2023-02-17T06:33:10;13.93;;;12.53;;
15261;SDS011;7733;51.554;13.590;2023-02-17T06:35:35;14.63;;;13.10;;
15261;SDS011;7733;51.554;13.590;2023-02-17T06:38:01;14.03;;;12.67;;
15261;SDS011;7733;51.554;13.590;2023-02-17T06:40:27;13.83;;;12.53;;
15261;SDS011;7733;51.554;13.590;2023-02-17T06:42:53;14.10;;;12.70;;
15261;SDS011;7733;51.554;13.590;2023-02-17T06:45:18;13.43;;;12.03;;
15261;SDS011;7733;51.554;13.590;2023-02-17T06:47:44;13.07;;;11.77;;
15261;SDS011;7733;51.554;13.590;2023-02-17T06:50:10;11.93;;;10.93;;
15261;SDS011;7733;51.554;13.590;2023-02-17T06:52:36;12.93;;;11.73;;
15261;SDS011;7733;51.554;13.590;2023-02-17T06:55:02;12.80;;;11.63;;
15261;SDS011;7733;51.554;13.590;2023-02-17T06:57:28;12.47;;;11.27;;
15261;SDS011;7733;51.554;13.590;2023-02-17T06:59:54;11.97;;;10.97;;
15261;SDS011;7733;51.554;13.590;2023-02-17T07:02:20;11.73;;;10.63;;
15261;SDS011;7733;51.554;13.590;2023-02-17T07:04:45;11.33;;;10.23;;
15261;SDS011;7733;51.554;13.590;2023-02-17T07:07:11;11.03;;;9.93;;
15261;SDS011;7733;51.554;13.590;2023-02-17T07:09:37;11.17;;;10.17;;
15261;SDS011;7733;51.554;13.590;2023-02-17T07:12:04;11.57;;;10.57;;
15261;SDS011;7733;51.554;13.590;2023-02-17T07:14:30;11.10;;;10.17;;
15261;SDS011;7733;51.554;13.590;2023-02-17T07:16:58;10.57;;;9.77;;
15261;SDS011;7733;51.554;13.590;2023-02-17T07:19:25;10.07;;;9.27;;
15261;SDS011;7733;51.554;13.590;2023-02-17T07:21:50;9.90;;;9.13;;
15261;SDS011;7733;51.554;13.590;2023-02-17T07:24:16;10.67;;;9.83;;
15261;SDS011;7733;51.554;13.590;2023-02-17T07:26:42;9.83;;;9.00;;
15261;SDS011;7733;51.554;13.590;2023-02-17T07:29:08;9.77;;;8.90;;
15261;SDS011;7733;51.554;13.590;2023-02-17T07:31:34;10.07;;;9.27;;
15261;SDS011;7733;51.554;13.590;2023-02-17T07:34:00;10.20;;;9.30;;
15261;SDS011;7733;51.554;13.590;2023-02-17T07:36:27;9.63;;;8.83;;
15261;SDS011;7733;51.554;13.590;2023-02-17T07:38:54;9.90;;;9.00;;
15261;SDS011;7733;51.554;13.590;2023-02-17T07:41:21;9.63;;;8.80;;
15261;SDS011;7733;51.554;13.590;2023-02-17T07:43:53;9.67;;;8.77;;
15261;SDS011;7733;51.554;13.590;2023-02-17T07:46:21;9.73;;;8.93;;
15261;SDS011;7733;51.554;13.590;2023-02-17T07:48:48;9.60;;;8.80;;
15261;SDS011;7733;51.554;13.590;2023-02-17T07:51:14;8.63;;;7.93;;
15261;SDS011;7733;51.554;13.590;2023-02-17T07:53:47;8.50;;;7.80;;
15261;SDS011;7733;51.554;13.590;2023-02-17T07:56:14;8.63;;;7.93;;
15261;SDS011;7733;51.554;13.590;2023-02-17T07:58:43;8.77;;;8.07;;
15261;SDS011;7733;51.554;13.590;2023-02-17T08:01:14;8.50;;;7.77;;
15261;SDS011;7733;51.554;13.590;2023-02-17T08:03:44;8.93;;;8.17;;
15261;SDS011;7733;51.554;13.590;2023-02-17T08:06:12;8.53;;;7.83;;
15261;SDS011;7733;51.554;13.590;2023-02-17T08:08:41;8.83;;;8.17;;
15261;SDS011;7733;51.554;13.590;2023-02-17T08:11:26;8.03;;;7.43;;
15261;SDS011;7733;51.554;13.590;2023-02-17T08:14:11;8.80;;;8.10;;
15261;SDS011;7733;51.554;13.590;2023-02-17T08:16:37;8.63;;;7.97;;
15261;SDS011;7733;51.554;13.590;2023-02-17T08:19:02;8.00;;;7.40;;
15261;SDS011;7733;51.554;13.590;2023-02-17T08:21:28;7.83;;;7.23;;
15261;SDS011;7733;51.554;13.590;2023-02-17T08:23:54;8.50;;;7.73;;
15261;SDS011;7733;51.554;13.590;2023-02-17T08:26:20;7.93;;;7.23;;
15261;SDS011;7733;51.554;13.590;2023-02-17T08:28:47;8.40;;;7.70;;
15261;SDS011;7733;51.554;13.590;2023-02-17T08:31:14;7.40;;;6.90;;
15261;SDS011;7733;51.554;13.590;2023-02-17T08:33:41;8.00;;;7.40;;
15261;SDS011;7733;51.554;13.590;2023-02-17T08:36:07;7.90;;;7.20;;
15261;SDS011;7733;51.554;13.590;2023-02-17T08:38:34;7.80;;;7.20;;
15261;SDS011;7733;51.554;13.590;2023-02-17T08:41:00;7.10;;;6.60;;
15261;SDS011;7733;51.554;13.590;2023-02-17T08:43:26;6.77;;;6.37;;
15261;SDS011;7733;51.554;13.590;2023-02-17T08:45:51;8.50;;;7.47;;
15261;SDS011;7733;51.554;13.590;2023-02-17T08:48:17;7.43;;;6.70;;
15261;SDS011;7733;51.554;13.590;2023-02-17T08:50:45;7.20;;;6.70;;
15261;SDS011;7733;51.554;13.590;2023-02-17T08:53:12;7.13;;;6.63;;
15261;SDS011;7733;51.554;13.590;2023-02-17T08:55:38;6.93;;;6.43;;
15261;SDS011;7733;51.554;13.590;2023-02-17T08:58:04;7.20;;;6.70;;
15261;SDS011;7733;51.554;13.590;2023-02-17T09:00:30;7.13;;;6.63;;
15261;SDS011;7733;51.554;13.590;2023-02-17T09:02:55;7.23;;;6.73;;
15261;SDS011;7733;51.554;13.590;2023-02-17T09:05:21;6.70;;;6.20;;
15261;SDS011;7733;51.554;13.590;2023-02-17T09:07:47;7.30;;;6.77;;
15261;SDS011;7733;51.554;13.590;2023-02-17T09:10:13;7.47;;;6.97;;
15261;SDS011;7733;51.554;13.590;2023-02-17T09:12:39;7.37;;;6.87;;
15261;SDS011;7733;51.554;13.590;2023-02-17T09:15:05;7.13;;;6.63;;
15261;SDS011;7733;51.554;13.590;2023-02-17T09:17:33;7.13;;;6.63;;
15261;SDS011;7733;51.554;13.590;2023-02-17T09:20:03;7.50;;;6.80;;
15261;SDS011;7733;51.554;13.590;2023-02-17T09:22:30;7.20;;;6.70;;
15261;SDS011;7733;51.554;13.590;2023-02-17T09:24:56;7.03;;;6.63;;
15261;SDS011;7733;51.554;13.590;2023-02-17T09:27:22;6.83;;;6.40;;
15261;SDS011;7733;51.554;13.590;2023-02-17T09:29:48;7.57;;;7.07;;
15261;SDS011;7733;51.554;13.590;2023-02-17T09:32:13;7.67;;;7.07;;
15261;SDS011;7733;51.554;13.590;2023-02-17T09:34:39;7.30;;;6.77;;
15261;SDS011;7733;51.554;13.590;2023-02-17T09:37:11;7.40;;;6.80;;
15261;SDS011;7733;51.554;13.590;2023-02-17T09:39:37;7.70;;;7.13;;
15261;SDS011;7733;51.554;13.590;2023-02-17T09:42:03;7.97;;;7.37;;
15261;SDS011;7733;51.554;13.590;2023-02-17T09:44:37;7.83;;;7.23;;
15261;SDS011;7733;51.554;13.590;2023-02-17T09:47:15;6.80;;;6.37;;
15261;SDS011;7733;51.554;13.590;2023-02-17T09:49:59;7.23;;;6.67;;
15261;SDS011;7733;51.554;13.590;2023-02-17T09:52:44;7.33;;;6.83;;
15261;SDS011;7733;51.554;13.590;2023-02-17T09:55:24;7.37;;;6.87;;
15261;SDS011;7733;51.554;13.590;2023-02-17T09:58:17;7.47;;;6.97;;
15261;SDS011;7733;51.554;13.590;2023-02-17T10:00:56;7.70;;;7.10;;
15261;SDS011;7733;51.554;13.590;2023-02-17T10:11:56;6.53;;;6.13;;
15261;SDS011;7733;51.554;13.590;2023-02-17T10:17:45;6.97;;;6.47;;
15261;SDS011;7733;51.554;13.590;2023-02-17T10:20:34;6.23;;;5.83;;
15261;SDS011;7733;51.554;13.590;2023-02-17T10:23:12;6.00;;;5.70;;
15261;SDS011;7733;51.554;13.590;2023-02-17T10:28:58;5.90;;;5.60;;
15261;SDS011;7733;51.554;13.590;2023-02-17T10:31:47;6.03;;;5.63;;
15261;SDS011;7733;51.554;13.590;2023-02-17T10:34:45;5.90;;;5.50;;
15261;SDS011;7733;51.554;13.590;2023-02-17T10:37:52;6.30;;;5.90;;
15261;SDS011;7733;51.554;13.590;2023-02-17T10:40:39;5.50;;;5.20;;
15261;SDS011;7733;51.554;13.590;2023-02-17T10:43:09;5.73;;;5.33;;
15261;SDS011;7733;51.554;13.590;2023-02-17T10:45:42;6.37;;;5.97;;
15261;SDS011;7733;51.554;13.590;2023-02-17T10:48:23;6.00;;;5.60;;
15261;SDS011;7733;51.554;13.590;2023-02-17T10:51:00;5.70;;;5.30;;
15261;SDS011;7733;51.554;13.590;2023-02-17T10:53:28;5.50;;;5.20;;
15261;SDS011;7733;51.554;13.590;2023-02-17T10:58:37;5.90;;;5.50;;
15261;SDS011;7733;51.554;13.590;2023-02-17T11:01:10;5.37;;;5.07;;
15261;SDS011;7733;51.554;13.590;2023-02-17T11:03:37;5.77;;;5.37;;
15261;SDS011;7733;51.554;13.590;2023-02-17T11:06:05;5.27;;;4.97;;
15261;SDS011;7733;51.554;13.590;2023-02-17T11:08:48;5.40;;;5.10;;
15261;SDS011;7733;51.554;13.590;2023-02-17T11:11:49;5.17;;;4.83;;
15261;SDS011;7733;51.554;13.590;2023-02-17T11:14:26;4.50;;;4.30;;
15261;SDS011;7733;51.554;13.590;2023-02-17T11:16:56;5.40;;;5.00;;
15261;SDS011;7733;51.554;13.590;2023-02-17T11:19:39;4.90;;;4.70;;
15261;SDS011;7733;51.554;13.590;2023-02-17T11:22:05;4.70;;;4.40;;
15261;SDS011;7733;51.554;13.590;2023-02-17T11:24:59;5.17;;;4.70;;
15261;SDS011;7733;51.554;13.590;2023-02-17T11:27:28;4.20;;;4.00;;
15261;SDS011;7733;51.554;13.590;2023-02-17T11:30:04;4.70;;;4.50;;
15261;SDS011;7733;51.554;13.590;2023-02-17T11:32:39;4.80;;;4.60;;
15261;SDS011;7733;51.554;13.590;2023-02-17T11:35:16;4.10;;;3.90;;
15261;SDS011;7733;51.554;13.590;2023-02-17T11:41:05;4.07;;;3.87;;
15261;SDS011;7733;51.554;13.590;2023-02-17T11:43:31;4.23;;;4.03;;
15261;SDS011;7733;51.554;13.590;2023-02-17T11:55:11;4.07;;;3.90;;
15261;SDS011;7733;51.554;13.590;2023-02-17T12:04:01;3.40;;;3.23;;
15261;SDS011;7733;51.554;13.590;2023-02-17T12:06:47;3.50;;;3.30;;
15261;SDS011;7733;51.554;13.590;2023-02-17T12:09:39;3.37;;;3.27;;
15261;SDS011;7733;51.554;13.590;2023-02-17T12:26:26;3.17;;;3.07;;
15261;SDS011;7733;51.554;13.590;2023-02-17T12:35:15;3.13;;;3.03;;
15261;SDS011;7733;51.554;13.590;2023-02-17T12:37:52;3.43;;;3.33;;
15261;SDS011;7733;51.554;13.590;2023-02-17T12:40:34;3.53;;;3.33;;
15261;SDS011;7733;51.554;13.590;2023-02-17T12:43:28;3.57;;;3.40;;
15261;SDS011;7733;51.554;13.590;2023-02-17T12:46:15;3.47;;;3.20;;
15261;SDS011;7733;51.554;13.590;2023-02-17T12:48:53;3.23;;;3.13;;
15261;SDS011;7733;51.554;13.590;2023-02-17T12:54:37;3.33;;;3.23;;
15261;SDS011;7733;51.554;13.590;2023-02-17T13:04:51;3.10;;;3.00;;
15261;SDS011;7733;51.554;13.590;2023-02-17T13:07:38;3.20;;;2.90;;
15261;SDS011;7733;51.554;13.590;2023-02-17T13:10:17;3.60;;;2.73;;
15261;SDS011;7733;51.554;13.590;2023-02-17T13:13:03;3.10;;;2.90;;
15261;SDS011;7733;51.554;13.590;2023-02-17T13:18:41;2.50;;;2.40;;
15261;SDS011;7733;51.554;13.590;2023-02-17T13:21:26;2.70;;;2.60;;
15261;SDS011;7733;51.554;13.590;2023-02-17T13:24:01;2.73;;;2.53;;
15261;SDS011;7733;51.554;13.590;2023-02-17T13:26:37;2.43;;;2.37;;
15261;SDS011;7733;51.554;13.590;2023-02-17T13:29:10;2.47;;;2.30;;
15261;SDS011;7733;51.554;13.590;2023-02-17T13:34:22;2.30;;;2.20;;
15261;SDS011;7733;51.554;13.590;2023-02-17T13:36:54;2.20;;;2.10;;
15261;SDS011;7733;51.554;13.590;2023-02-17T13:41:53;2.20;;;2.10;;
15261;SDS011;7733;51.554;13.590;2023-02-17T13:44:37;2.03;;;1.93;;
15261;SDS011;7733;51.554;13.590;2023-02-17T13:47:13;2.07;;;1.97;;
15261;SDS011;7733;51.554;13.590;2023-02-17T13:49:52;2.07;;;1.97;;
15261;SDS011;7733;51.554;13.590;2023-02-17T13:52:24;2.97;;;1.90;;
15261;SDS011;7733;51.554;13.590;2023-02-17T13:54:58;1.90;;;1.90;;
15261;SDS011;7733;51.554;13.590;2023-02-17T14:00:08;1.93;;;1.83;;
15261;SDS011;7733;51.554;13.590;2023-02-17T14:02:49;1.87;;;1.77;;
15261;SDS011;7733;51.554;13.590;2023-02-17T14:05:27;2.00;;;1.90;;
15261;SDS011;7733;51.554;13.590;2023-02-17T14:08:16;1.80;;;1.70;;
15261;SDS011;7733;51.554;13.590;2023-02-17T14:10:50;1.50;;;1.50;;
15261;SDS011;7733;51.554;13.590;2023-02-17T14:13:17;1.83;;;1.57;;
15261;SDS011;7733;51.554;13.590;2023-02-17T14:15:50;3.60;;;3.30;;
15261;SDS011;7733;51.554;13.590;2023-02-17T14:18:43;1.70;;;1.70;;
15261;SDS011;7733;51.554;13.590;2023-02-17T14:21:23;2.63;;;1.70;;
15261;SDS011;7733;51.554;13.590;2023-02-17T14:23:53;1.70;;;1.60;;
15261;SDS011;7733;51.554;13.590;2023-02-17T14:29:12;2.20;;;1.60;;
15261;SDS011;7733;51.554;13.590;2023-02-17T14:31:43;1.20;;;1.20;;
15261;SDS011;7733;51.554;13.590;2023-02-17T14:34:24;1.80;;;1.70;;
15261;SDS011;7733;51.554;13.590;2023-02-17T14:39:47;1.90;;;1.37;;
15261;SDS011;7733;51.554;13.590;2023-02-17T14:42:13;2.30;;;1.60;;
15261;SDS011;7733;51.554;13.590;2023-02-17T14:44:39;1.40;;;1.40;;
15261;SDS011;7733;51.554;13.590;2023-02-17T14:47:05;1.60;;;1.50;;
15261;SDS011;7733;51.554;13.590;2023-02-17T14:49:30;1.30;;;1.30;;
15261;SDS011;7733;51.554;13.590;2023-02-17T14:51:56;1.30;;;1.20;;
15261;SDS011;7733;51.554;13.590;2023-02-17T14:54:22;1.30;;;1.30;;
15261;SDS011;7733;51.554;13.590;2023-02-17T14:57:04;1.47;;;1.47;;
15261;SDS011;7733;51.554;13.590;2023-02-17T14:59:32;1.57;;;1.57;;
15261;SDS011;7733;51.554;13.590;2023-02-17T15:01:58;1.80;;;1.80;;
15261;SDS011;7733;51.554;13.590;2023-02-17T15:04:24;1.73;;;1.67;;
15261;SDS011;7733;51.554;13.590;2023-02-17T15:06:50;1.53;;;1.53;;
15261;SDS011;7733;51.554;13.590;2023-02-17T15:09:22;1.20;;;1.20;;
15261;SDS011;7733;51.554;13.590;2023-02-17T15:11:54;1.60;;;1.50;;
15261;SDS011;7733;51.554;13.590;2023-02-17T15:14:21;1.70;;;1.60;;
15261;SDS011;7733;51.554;13.590;2023-02-17T15:16:48;1.43;;;1.33;;
15261;SDS011;7733;51.554;13.590;2023-02-17T15:19:14;1.30;;;1.30;;
15261;SDS011;7733;51.554;13.590;2023-02-17T15:21:45;1.57;;;1.57;;
15261;SDS011;7733;51.554;13.590;2023-02-17T15:24:24;1.63;;;1.53;;
15261;SDS011;7733;51.554;13.590;2023-02-17T15:26:51;1.60;;;1.50;;
15261;SDS011;7733;51.554;13.590;2023-02-17T15:29:17;2.03;;;1.37;;
15261;SDS011;7733;51.554;13.590;2023-02-17T15:31:47;1.50;;;1.50;;
15261;SDS011;7733;51.554;13.590;2023-02-17T15:34:19;1.30;;;1.30;;
15261;SDS011;7733;51.554;13.590;2023-02-17T15:36:49;1.33;;;1.20;;
15261;SDS011;7733;51.554;13.590;2023-02-17T15:39:16;1.30;;;1.30;;
15261;SDS011;7733;51.554;13.590;2023-02-17T15:41:46;1.77;;;1.70;;
15261;SDS011;7733;51.554;13.590;2023-02-17T15:46:43;1.40;;;1.30;;
15261;SDS011;7733;51.554;13.590;2023-02-17T15:49:10;1.30;;;1.30;;
15261;SDS011;7733;51.554;13.590;2023-02-17T15:51:37;1.63;;;1.40;;
15261;SDS011;7733;51.554;13.590;2023-02-17T15:54:03;1.40;;;1.40;;
15261;SDS011;7733;51.554;13.590;2023-02-17T15:56:30;1.40;;;1.40;;
15261;SDS011;7733;51.554;13.590;2023-02-17T15:59:13;1.63;;;1.37;;
15261;SDS011;7733;51.554;13.590;2023-02-17T16:01:43;2.37;;;1.30;;
15261;SDS011;7733;51.554;13.590;2023-02-17T16:04:09;1.20;;;1.20;;
15261;SDS011;7733;51.554;13.590;2023-02-17T16:06:38;1.10;;;1.10;;
15261;SDS011;7733;51.554;13.590;2023-02-17T16:09:04;1.43;;;1.40;;
15261;SDS011;7733;51.554;13.590;2023-02-17T16:11:31;1.20;;;1.20;;
15261;SDS011;7733;51.554;13.590;2023-02-17T16:13:58;1.20;;;1.20;;
15261;SDS011;7733;51.554;13.590;2023-02-17T16:16:26;1.63;;;1.40;;
15261;SDS011;7733;51.554;13.590;2023-02-17T16:18:57;1.30;;;1.30;;
15261;SDS011;7733;51.554;13.590;2023-02-17T16:21:24;1.43;;;1.33;;
15261;SDS011;7733;51.554;13.590;2023-02-17T16:23:50;1.00;;;1.00;;
15261;SDS011;7733;51.554;13.590;2023-02-17T16:28:51;1.27;;;1.27;;
15261;SDS011;7733;51.554;13.590;2023-02-17T16:31:17;1.47;;;1.30;;
15261;SDS011;7733;51.554;13.590;2023-02-17T16:33:43;1.30;;;1.30;;
15261;SDS011;7733;51.554;13.590;2023-02-17T16:36:11;1.50;;;1.40;;
15261;SDS011;7733;51.554;13.590;2023-02-17T16:38:43;1.70;;;1.60;;
15261;SDS011;7733;51.554;13.590;2023-02-17T16:41:13;1.53;;;1.40;;
15261;SDS011;7733;51.554;13.590;2023-02-17T16:43:41;1.23;;;1.23;;
15261;SDS011;7733;51.554;13.590;2023-02-17T16:46:15;3.40;;;1.10;;
15261;SDS011;7733;51.554;13.590;2023-02-17T16:48:54;1.23;;;1.13;;
15261;SDS011;7733;51.554;13.590;2023-02-17T16:51:21;1.30;;;1.30;;